createdAt,value
2018-08-30T00:02:20.713Z,3.48
2018-08-30T00:08:15.719Z,3.67
2018-08-30T00:14:10.712Z,3.4
2018-08-30T00:20:05.703Z,3.98
2018-08-30T00:26:00.711Z,3.67
2018-08-30T00:31:55.729Z,3.33
2018-08-30T00:37:50.697Z,3.28
2018-08-30T00:43:45.715Z,3.44
2018-08-30T00:49:40.726Z,3.73
2018-08-30T00:55:35.709Z,3.55
2018-08-30T01:01:30.725Z,3.39
2018-08-30T01:07:25.743Z,4.25
2018-08-30T01:13:20.781Z,4.13
2018-08-30T01:19:15.733Z,4.12
2018-08-30T01:25:10.786Z,3.62
2018-08-30T01:31:05.745Z,3.75
2018-08-30T01:37:00.778Z,4.03
2018-08-30T01:42:55.778Z,4.07
2018-08-30T01:48:50.774Z,3.83
2018-08-30T01:54:45.752Z,3.74
2018-08-30T02:00:40.761Z,4.28
2018-08-30T02:06:35.755Z,3.94
2018-08-30T02:12:30.785Z,4.63
2018-08-30T02:18:25.779Z,3.97
2018-08-30T02:24:20.772Z,3.85
2018-08-30T02:30:15.770Z,4
2018-08-30T02:36:10.855Z,4.12
2018-08-30T02:42:05.855Z,4.6
2018-08-30T02:48:00.806Z,4.07
2018-08-30T02:53:55.801Z,3.64
2018-08-30T02:59:50.807Z,4.05
2018-08-30T03:05:45.835Z,3.94
2018-08-30T03:11:40.823Z,3.75
2018-08-30T03:17:35.828Z,3.92
2018-08-30T03:23:30.834Z,3.8
2018-08-30T03:29:25.822Z,3.61
2018-08-30T03:35:20.823Z,3.73
2018-08-30T03:41:15.819Z,3.7
2018-08-30T03:47:10.828Z,3.32
2018-08-30T03:53:05.849Z,3.69
2018-08-30T03:59:00.836Z,3.76
2018-08-30T04:04:55.850Z,3.89
2018-08-30T04:10:50.843Z,3.64
2018-08-30T04:16:45.876Z,3.57
2018-08-30T04:22:40.856Z,3.62
2018-08-30T04:28:35.886Z,4.1
2018-08-30T04:34:30.885Z,3.83
2018-08-30T04:40:25.888Z,3.61
2018-08-30T04:46:20.898Z,3.64
2018-08-30T04:52:15.884Z,4.1
2018-08-30T04:58:10.914Z,3.4
2018-08-30T05:04:05.914Z,4.01
2018-08-30T05:10:01.038Z,4.21
2018-08-30T05:15:55.884Z,4.03
2018-08-30T05:21:50.956Z,4.2
2018-08-30T05:27:45.902Z,4.62
2018-08-30T05:33:40.925Z,4.44
2018-08-30T05:39:35.909Z,4.37
2018-08-30T05:45:30.977Z,5.4
2018-08-30T05:51:25.931Z,6.53
2018-08-30T05:57:20.926Z,5.66
2018-08-30T06:03:15.957Z,4.85
2018-08-30T06:09:10.981Z,4.94
2018-08-30T06:15:05.917Z,4.97
2018-08-30T06:21:00.995Z,5.14
2018-08-30T06:26:56.022Z,5.18
2018-08-30T06:32:51.041Z,4.8
2018-08-30T06:38:46.054Z,5.06
2018-08-30T06:44:40.944Z,4.9
2018-08-30T06:50:35.965Z,4.81
2018-08-30T06:56:31.089Z,4.53
2018-08-30T07:02:25.966Z,5
2018-08-30T07:08:20.963Z,5.54
2018-08-30T07:14:16.012Z,5.43
2018-08-30T07:20:10.994Z,5.41
2018-08-30T07:26:06.020Z,3.91
2018-08-30T07:32:01.029Z,5.09
2018-08-30T07:37:56.004Z,4.97
2018-08-30T07:43:51.001Z,6.63
2018-08-30T07:49:46.003Z,6.36
2018-08-30T07:55:41.006Z,6.38
2018-08-30T08:01:36.029Z,6.57
2018-08-30T08:07:31.028Z,6.31
2018-08-30T08:13:26.016Z,6.81
2018-08-30T08:19:21.034Z,6.85
2018-08-30T08:25:16.107Z,7.17
2018-08-30T08:31:11.104Z,6.47
2018-08-30T08:37:06.068Z,6.46
2018-08-30T08:43:01.061Z,5.58
2018-08-30T08:48:56.066Z,5.74
2018-08-30T08:54:51.034Z,5.84
2018-08-30T09:00:46.063Z,6.44
2018-08-30T09:06:41.053Z,5.44
2018-08-30T09:12:36.070Z,6.1
2018-08-30T09:18:31.135Z,6.18
2018-08-30T09:24:26.076Z,5.71
2018-08-30T09:30:21.145Z,5.08
2018-08-30T09:36:16.129Z,5.38
2018-08-30T09:42:11.141Z,4.63
2018-08-30T09:48:06.131Z,4.68
2018-08-30T09:54:01.128Z,4.94
2018-08-30T09:59:56.106Z,4.35
2018-08-30T10:05:51.133Z,3.53
2018-08-30T10:11:46.192Z,4.77
2018-08-30T10:17:41.121Z,4.46
2018-08-30T10:23:36.128Z,4.69
2018-08-30T10:29:31.140Z,5.37
2018-08-30T10:35:26.130Z,5.25
2018-08-30T10:41:21.170Z,5.36
2018-08-30T10:47:16.150Z,5.71
2018-08-30T10:53:11.198Z,5.08
2018-08-30T10:59:06.177Z,5.39
2018-08-30T11:05:01.203Z,5.07
2018-08-30T11:10:56.200Z,5.86
2018-08-30T11:16:51.165Z,5.58
2018-08-30T11:22:46.197Z,5.04
2018-08-30T11:28:41.237Z,5.36
2018-08-30T11:34:36.202Z,5.11
2018-08-30T11:40:31.245Z,6.2
2018-08-30T11:46:26.191Z,7.07
2018-08-30T11:52:21.265Z,6.29
2018-08-30T11:58:16.240Z,5.9
2018-08-30T12:04:11.242Z,6.11
2018-08-30T12:10:06.212Z,6.07
2018-08-30T12:16:01.219Z,6.38
2018-08-30T12:21:56.292Z,6.57
2018-08-30T12:27:51.272Z,6.28
2018-08-30T12:33:46.319Z,6.49
2018-08-30T12:39:41.324Z,6.42
2018-08-30T12:45:36.271Z,6.34
2018-08-30T12:51:31.484Z,6.45
2018-08-30T12:57:26.386Z,6.31
2018-08-30T13:03:21.386Z,6.23
2018-08-30T13:09:16.642Z,5.76
2018-08-30T13:15:11.862Z,5.96
2018-08-30T13:21:06.662Z,5.41
2018-08-30T13:27:01.751Z,5.86
2018-08-30T13:32:56.944Z,6.02
2018-08-30T13:38:51.633Z,6.17
2018-08-30T13:44:46.751Z,6.04
2018-08-30T13:50:41.652Z,6.15
2018-08-30T13:56:36.927Z,6.2
2018-08-30T14:02:31.629Z,6.47
2018-08-30T14:08:26.720Z,6.35
2018-08-30T14:14:21.674Z,6.26
2018-08-30T14:20:16.324Z,6.3
2018-08-30T14:26:11.402Z,6.99
2018-08-30T14:32:06.330Z,7.14
2018-08-30T14:38:01.359Z,7
2018-08-30T14:43:56.393Z,5.97
2018-08-30T14:49:51.353Z,6.13
2018-08-30T14:55:46.348Z,6.39
2018-08-30T15:01:41.415Z,5.89
2018-08-30T15:07:36.391Z,5.33
2018-08-30T15:13:31.393Z,5.77
2018-08-30T15:19:26.367Z,4.94
2018-08-30T15:25:21.411Z,5.42
2018-08-30T15:31:16.412Z,5.03
2018-08-30T15:37:11.387Z,4.68
2018-08-30T15:43:06.387Z,4.99
2018-08-30T15:49:01.402Z,5.08
2018-08-30T15:54:56.405Z,5.35
2018-08-30T16:00:51.403Z,4.62
2018-08-30T16:06:46.703Z,5.04
2018-08-30T16:12:41.438Z,5.47
2018-08-30T16:18:36.469Z,5.15
2018-08-30T16:24:31.609Z,5.38
2018-08-30T16:30:26.495Z,4.92
2018-08-30T16:36:21.424Z,5.18
2018-08-30T16:42:16.460Z,5.88
2018-08-30T16:48:11.441Z,5.64
2018-08-30T16:54:06.447Z,5.57
2018-08-30T17:00:01.537Z,5.33
2018-08-30T17:05:56.440Z,5.94
2018-08-30T17:11:51.446Z,5.79
2018-08-30T17:17:46.693Z,5.97
2018-08-30T17:23:41.481Z,5.71
2018-08-30T17:29:36.461Z,5.68
2018-08-30T17:35:31.491Z,5.63
2018-08-30T17:41:26.499Z,5.9
2018-08-30T17:47:21.499Z,6.07
2018-08-30T17:53:16.495Z,5.48
2018-08-30T17:59:11.473Z,5.24
2018-08-30T18:05:06.519Z,5.16
2018-08-30T18:11:01.490Z,5.32
2018-08-30T18:16:56.490Z,5.81
2018-08-30T18:22:51.558Z,5.43
2018-08-30T18:28:46.513Z,6.05
2018-08-30T18:34:41.553Z,5.93
2018-08-30T18:40:36.509Z,5.77
2018-08-30T18:46:31.528Z,5.55
2018-08-30T18:52:26.624Z,6.56
2018-08-30T18:58:21.523Z,6.15
2018-08-30T19:04:16.554Z,6.27
2018-08-30T19:10:11.524Z,6.71
2018-08-30T19:16:06.542Z,5.82
2018-08-30T19:22:01.589Z,5.94
2018-08-30T19:27:56.553Z,6.1
2018-08-30T19:33:51.572Z,6.97
2018-08-30T19:39:46.569Z,6.81
2018-08-30T19:45:41.556Z,6.25
2018-08-30T19:51:36.581Z,7.25
2018-08-30T19:57:31.596Z,6.58
2018-08-30T20:03:26.578Z,6.89
2018-08-30T20:09:21.666Z,6.86
2018-08-30T20:15:16.579Z,7.08
2018-08-30T20:21:11.623Z,6.21
2018-08-30T20:27:06.638Z,6.7
2018-08-30T20:33:01.630Z,6.72
2018-08-30T20:38:56.600Z,6.28
2018-08-30T20:44:51.610Z,6.43
2018-08-30T20:50:46.620Z,6.92
2018-08-30T20:56:41.653Z,7.21
2018-08-30T21:02:36.659Z,7.6
2018-08-30T21:08:31.619Z,6.84
2018-08-30T21:14:26.629Z,7.68
2018-08-30T21:20:21.639Z,7.39
2018-08-30T21:26:16.647Z,7.54
2018-08-30T21:32:11.660Z,7.51
2018-08-30T21:38:06.653Z,7.21
2018-08-30T21:44:01.642Z,6.97
2018-08-30T21:49:56.656Z,7.27
2018-08-30T21:55:51.663Z,6.88
2018-08-30T22:01:46.661Z,7.32
2018-08-30T22:07:41.681Z,7.05
2018-08-30T22:13:36.652Z,7.47
2018-08-30T22:19:31.657Z,7.02
2018-08-30T22:25:26.665Z,6.8
2018-08-30T22:31:21.684Z,7.63
2018-08-30T22:37:16.703Z,7.1
2018-08-30T22:43:11.701Z,7.19
2018-08-30T22:49:06.731Z,7.98
2018-08-30T22:55:01.720Z,7.13
2018-08-30T23:00:56.731Z,7.49
2018-08-30T23:06:51.748Z,7.63
2018-08-30T23:12:46.748Z,7.31
2018-08-30T23:18:41.712Z,8.38
2018-08-30T23:24:36.710Z,7.87
2018-08-30T23:30:31.921Z,7.69
2018-08-30T23:36:26.749Z,7.83
2018-08-30T23:42:21.739Z,8.03
2018-08-30T23:48:16.736Z,7.88
2018-08-30T23:54:11.749Z,7.61
